Time;durP1;ratioP1;P1;durP2;ratioP2;P2;SDS_P1;SDS_P2;PMS_P1;PMS_P2;Temp;Humidity;BMP_temperature;BMP_pressure;BME280_temperature;BME280_humidity;BME280_pressure;Samples;Min_cycle;Max_cycle;Signal;HPM_P1;HPM_P2
2022/01/10 01:31:14;;;;;;;6.82;3.58;;;;;;;-1.12;100.00;93374.13;5058549;23;20072;-95
2022/01/10 01:33:39;;;;;;;4.72;2.70;;;;;;;-1.09;100.00;93365.97;4987976;28;20038;-96
2022/01/10 01:36:05;;;;;;;3.70;2.10;;;;;;;-0.79;100.00;93369.50;5003776;28;20033;-94
2022/01/10 01:38:31;;;;;;;5.72;2.70;;;;;;;-1.03;100.00;93361.75;5004358;28;20374;-95
2022/01/10 01:41:11;;;;;;;8.35;3.05;;;;;;;-1.23;100.00;93365.34;5003853;28;20461;-95
2022/01/10 01:43:37;;;;;;;6.07;3.40;;;;;;;-1.34;100.00;93369.47;4989609;28;20381;-96
2022/01/10 01:46:03;;;;;;;8.05;3.72;;;;;;;-1.37;100.00;93361.41;5003696;28;20030;-95
2022/01/10 01:48:28;;;;;;;9.55;3.92;;;;;;;-1.37;100.00;93356.25;4987768;28;20030;-95
2022/01/10 01:50:54;;;;;;;7.65;3.83;;;;;;;-1.41;100.00;93366.22;5003497;28;20068;-95
2022/01/10 01:53:19;;;;;;;8.73;3.80;;;;;;;-1.43;100.00;93368.22;5003939;28;20026;-94
2022/01/10 01:55:45;;;;;;;5.97;2.88;;;;;;;-1.38;100.00;93365.75;4987678;28;20033;-95
2022/01/10 01:58:11;;;;;;;6.75;2.97;;;;;;;-1.24;100.00;93350.94;5004113;28;20034;-94
2022/01/10 02:00:36;;;;;;;3.30;2.20;;;;;;;-1.05;100.00;93356.06;5003185;28;20037;-96
2022/01/10 02:03:03;;;;;;;4.35;2.50;;;;;;;-1.10;100.00;93353.34;4987324;28;20029;-96
2022/01/10 02:05:28;;;;;;;5.15;2.58;;;;;;;-1.13;100.00;93357.16;4987145;28;20029;-94
2022/01/10 02:07:56;;;;;;;4.18;2.35;;;;;;;-1.10;100.00;93354.13;5003562;28;20029;-95
2022/01/10 02:10:21;;;;;;;4.57;2.25;;;;;;;-1.07;100.00;93348.53;4987133;28;20053;-94
2022/01/10 02:12:47;;;;;;;6.32;2.38;;;;;;;-1.08;100.00;93354.69;4986904;28;20033;-95
2022/01/10 02:15:43;;;;;;;4.50;2.20;;;;;;;-0.89;100.00;93354.63;5003190;28;20084;-95
2022/01/10 02:18:09;;;;;;;2.75;1.50;;;;;;;-0.78;100.00;93353.88;4988344;28;20091;-96
2022/01/10 02:20:34;;;;;;;3.25;1.65;;;;;;;-0.74;100.00;93352.41;4986811;28;20128;-95
2022/01/10 02:23:01;;;;;;;4.68;1.70;;;;;;;-0.75;100.00;93362.94;4986721;28;20408;-94
2022/01/10 02:25:27;;;;;;;3.10;1.75;;;;;;;-0.79;100.00;93357.44;4985919;28;20038;-95
2022/01/10 02:27:53;;;;;;;1.50;1.00;;;;;;;-0.57;100.00;93349.22;4986558;28;20038;-94
2022/01/10 02:30:18;;;;;;;1.23;0.90;;;;;;;-0.64;100.00;93348.50;4986956;28;20088;-94
2022/01/10 02:32:45;;;;;;;4.20;1.50;;;;;;;-0.66;100.00;93346.16;5002424;28;20034;-94
2022/01/10 02:35:27;;;;;;;3.63;1.27;;;;;;;-0.65;100.00;93354.66;4986789;28;20034;-95
2022/01/10 02:37:54;;;;;;;1.58;1.05;;;;;;;-0.63;100.00;93348.31;4986787;28;20065;-94
2022/01/10 02:40:22;;;;;;;4.53;1.40;;;;;;;-0.54;100.00;93340.25;4986733;28;20076;-95
2022/01/10 02:42:48;;;;;;;1.80;1.30;;;;;;;-0.65;100.00;93337.44;4986721;28;20030;-94
2022/01/10 02:45:14;;;;;;;2.17;1.20;;;;;;;-0.73;100.00;93340.34;4986198;28;20064;-94
2022/01/10 02:47:40;;;;;;;2.53;1.50;;;;;;;-0.76;100.00;93344.13;4986574;28;20339;-96
2022/01/10 02:50:06;;;;;;;2.88;1.55;;;;;;;-0.63;100.00;93340.59;4986383;28;20040;-95
2022/01/10 02:52:33;;;;;;;2.70;1.45;;;;;;;-0.81;100.00;93343.22;4985962;28;20025;-95
2022/01/10 02:55:00;;;;;;;3.72;1.90;;;;;;;-0.86;100.00;93331.06;4986138;28;20030;-95
2022/01/10 02:57:27;;;;;;;2.88;1.30;;;;;;;-0.74;100.00;93339.53;4986317;28;20026;-95
2022/01/10 02:59:53;;;;;;;3.00;1.50;;;;;;;-0.73;100.00;93345.50;4985991;28;20033;-94
2022/01/10 03:02:20;;;;;;;3.00;1.67;;;;;;;-0.70;100.00;93344.28;5001963;28;20029;-95
2022/01/10 03:04:46;;;;;;;2.95;1.50;;;;;;;-0.81;100.00;93335.50;4986052;28;20131;-95
2022/01/10 03:07:16;;;;;;;1.77;1.02;;;;;;;-0.88;100.00;93343.31;4986236;28;20450;-95
2022/01/10 03:09:41;;;;;;;2.05;1.08;;;;;;;-0.91;100.00;93351.50;4985513;28;20051;-95
2022/01/10 03:12:09;;;;;;;2.53;1.50;;;;;;;-1.06;100.00;93344.19;5017992;28;20022;-96
2022/01/10 03:14:35;;;;;;;2.45;1.17;;;;;;;-1.00;100.00;93348.44;4985787;28;20026;-94
2022/01/10 03:17:01;;;;;;;3.55;1.58;;;;;;;-0.97;100.00;93339.53;4985366;28;20037;-95
2022/01/10 03:19:26;;;;;;;3.95;1.73;;;;;;;-1.10;100.00;93346.41;5001498;28;20033;-95
2022/01/10 03:21:52;;;;;;;2.20;1.20;;;;;;;-1.23;100.00;93339.66;5018876;28;20034;-94
2022/01/10 03:24:17;;;;;;;5.85;1.33;;;;;;;-1.29;100.00;93349.06;5001541;28;20053;-96
2022/01/10 03:26:43;;;;;;;1.65;0.95;;;;;;;-1.23;100.00;93342.22;5018918;28;20026;-95
2022/01/10 03:29:08;;;;;;;4.07;2.10;;;;;;;-1.23;100.00;93352.50;4985280;28;20029;-94
2022/01/10 03:31:34;;;;;;;3.00;1.13;;;;;;;-1.14;100.00;93353.78;5001500;28;20104;-96
2022/01/10 03:33:59;;;;;;;4.90;1.00;;;;;;;-1.04;100.00;93339.63;5001588;28;20048;-95
2022/01/10 03:36:25;;;;;;;2.38;1.27;;;;;;;-0.94;100.00;93342.41;5000913;28;20446;-95
2022/01/10 03:38:51;;;;;;;3.80;1.30;;;;;;;-0.79;100.00;93336.88;5018288;28;20026;-96
2022/01/10 03:41:16;;;;;;;3.63;1.25;;;;;;;-0.73;100.00;93350.63;4984980;28;20037;-95
2022/01/10 03:43:42;;;;;;;3.63;1.42;;;;;;;-0.76;100.00;93359.56;4985373;28;20029;-95
2022/01/10 03:46:07;;;;;;;4.53;2.30;;;;;;;-0.59;100.00;93361.47;5018479;28;20030;-94
2022/01/10 03:48:33;;;;;;;2.25;1.33;;;;;;;-0.50;100.00;93360.16;4985172;28;20025;-96
2022/01/10 03:50:58;;;;;;;2.35;1.00;;;;;;;-0.43;100.00;93358.28;4984880;28;20025;-96
2022/01/10 03:53:24;;;;;;;2.05;1.25;;;;;;;-0.45;100.00;93356.94;5001246;28;20036;-95
2022/01/10 03:55:50;;;;;;;3.85;1.42;;;;;;;-0.40;100.00;93367.31;4985387;28;20064;-95
2022/01/10 03:58:16;;;;;;;2.08;1.30;;;;;;;-0.54;100.00;93366.75;5000962;28;20057;-96
2022/01/10 04:00:41;;;;;;;4.38;1.80;;;;;;;-0.59;100.00;93371.78;5000643;28;20029;-95
2022/01/10 04:03:07;;;;;;;7.47;2.55;;;;;;;-0.66;100.00;93379.59;4984582;28;20129;-96
2022/01/10 04:05:34;;;;;;;3.75;2.22;;;;;;;-0.51;100.00;93358.59;5017396;28;20084;-95
2022/01/10 04:08:00;;;;;;;19.23;2.70;;;;;;;-0.61;100.00;93372.00;5000840;28;20080;-95
2022/01/10 04:13:50;;;;;;;5.63;2.42;;;;;;;-0.86;100.00;93365.25;5018118;28;20088;-95
2022/01/10 04:19:37;;;;;;;3.53;2.03;;;;;;;-0.82;100.00;93387.94;5017985;28;20036;-95
2022/01/10 04:22:04;;;;;;;4.10;2.70;;;;;;;-0.77;100.00;93383.72;4984429;28;20038;-96
2022/01/10 04:24:32;;;;;;;3.70;2.25;;;;;;;-0.83;100.00;93383.81;4984413;28;20041;-95
2022/01/10 04:26:58;;;;;;;5.60;2.67;;;;;;;-0.79;100.00;93374.66;4984690;28;20034;-96
2022/01/10 04:32:45;;;;;;;7.13;2.92;;;;;;;-0.89;100.00;93388.03;5017652;28;20116;-96
2022/01/10 04:35:11;;;;;;;7.43;3.05;;;;;;;-0.93;100.00;93384.34;5016700;28;20038;-95
2022/01/10 04:37:37;;;;;;;6.25;3.20;;;;;;;-1.04;100.00;93394.38;4984204;28;20041;-96
2022/01/10 04:40:04;;;;;;;7.05;3.13;;;;;;;-1.02;100.00;93389.03;4984347;28;20033;-96
2022/01/10 04:42:29;;;;;;;5.75;3.00;;;;;;;-1.06;100.00;93398.19;4984444;28;20346;-95
2022/01/10 04:44:55;;;;;;;7.28;3.30;;;;;;;-1.17;100.00;93391.97;4984279;28;20029;-95
2022/01/10 04:47:21;;;;;;;6.13;3.20;;;;;;;-1.18;100.00;93396.34;4984141;28;20040;-95
2022/01/10 04:53:08;;;;;;;5.65;3.25;;;;;;;-1.40;100.00;93408.09;5017452;28;20083;-96
2022/01/10 04:55:33;;;;;;;9.90;3.60;;;;;;;-1.68;100.00;93422.22;5000080;28;20022;-96
2022/01/10 04:57:59;;;;;;;8.43;4.00;;;;;;;-1.78;100.00;93418.41;4984201;28;20049;-95
2022/01/10 05:00:25;;;;;;;7.22;4.05;;;;;;;-1.83;100.00;93417.47;5016390;28;20029;-95
2022/01/10 05:02:53;;;;;;;7.40;3.45;;;;;;;-1.69;100.00;93423.22;4984008;28;20176;-95
2022/01/10 05:05:19;;;;;;;8.57;4.00;;;;;;;-1.54;100.00;93422.88;4999882;28;20117;-96
2022/01/10 05:07:44;;;;;;;6.78;3.67;;;;;;;-1.52;100.00;93423.44;5000060;28;20057;-95
2022/01/10 05:10:10;;;;;;;7.75;4.18;;;;;;;-1.49;100.00;93426.38;5000150;28;20030;-96
2022/01/10 05:12:36;;;;;;;9.32;4.60;;;;;;;-1.52;100.00;93424.22;5000181;28;20068;-96
2022/01/10 05:15:03;;;;;;;7.88;4.05;;;;;;;-1.39;100.00;93430.22;4999852;28;20112;-94
2022/01/10 05:17:28;;;;;;;7.93;4.07;;;;;;;-1.57;100.00;93430.03;5000053;28;20526;-96
2022/01/10 05:19:54;;;;;;;9.52;4.78;;;;;;;-1.66;100.00;93431.31;5016329;28;20053;-96
2022/01/10 05:22:19;;;;;;;11.50;4.82;;;;;;;-1.68;100.00;93437.63;5000007;28;20034;-94
2022/01/10 05:24:45;;;;;;;8.30;4.38;;;;;;;-1.53;100.00;93443.22;4983718;28;20458;-96
2022/01/10 05:27:11;;;;;;;7.95;4.32;;;;;;;-1.54;100.00;93443.44;4983669;28;20417;-94
2022/01/10 05:32:58;;;;;;;8.38;3.67;;;;;;;-1.48;100.00;93445.13;5017405;28;20064;-94
2022/01/10 05:35:24;;;;;;;8.02;3.60;;;;;;;-1.48;100.00;93445.13;4983955;28;20037;-95
2022/01/10 05:37:50;;;;;;;11.70;4.05;;;;;;;-1.57;100.00;93455.72;4983973;28;20029;-95
2022/01/10 05:40:15;;;;;;;7.65;3.75;;;;;;;-1.68;100.00;93447.91;5000276;28;20033;-95
2022/01/10 05:42:41;;;;;;;8.38;4.30;;;;;;;-1.71;100.00;93446.56;4983704;28;20085;-94
2022/01/10 05:45:07;;;;;;;10.55;4.63;;;;;;;-1.77;100.00;93449.97;4999827;28;20441;-94
2022/01/10 05:47:41;;;;;;;9.27;4.38;;;;;;;-1.84;100.00;93450.03;4983798;28;20025;-96
2022/01/10 05:50:08;;;;;;;10.55;4.90;;;;;;;-1.85;100.00;93446.72;4984889;28;20088;-93
2022/01/10 05:52:33;;;;;;;10.85;4.93;;;;;;;-1.94;100.00;93445.41;4983638;28;20028;-94
2022/01/10 05:54:59;;;;;;;9.25;4.82;;;;;;;-1.97;100.00;93450.97;5000104;28;20025;-96
2022/01/10 05:57:24;;;;;;;9.35;4.78;;;;;;;-2.06;100.00;93450.44;4983450;28;20129;-94
2022/01/10 05:59:50;;;;;;;11.85;5.43;;;;;;;-2.18;100.00;93462.41;4983617;28;20431;-95
2022/01/10 06:02:16;;;;;;;15.13;5.97;;;;;;;-2.29;100.00;93464.63;5020293;28;20037;-95
2022/01/10 06:04:41;;;;;;;12.85;6.13;;;;;;;-2.24;100.00;93474.28;5003108;28;20026;-93
2022/01/10 06:07:07;;;;;;;12.10;6.10;;;;;;;-2.18;100.00;93468.31;4987491;28;20435;-95
2022/01/10 06:09:32;;;;;;;17.85;6.53;;;;;;;-2.16;100.00;93473.22;4987113;28;20029;-95
2022/01/10 06:11:58;;;;;;;14.57;6.50;;;;;;;-2.16;100.00;93470.66;4986863;28;20022;-95
2022/01/10 06:14:23;;;;;;;15.80;6.78;;;;;;;-2.08;100.00;93474.75;4986661;28;20038;-95
2022/01/10 06:16:49;;;;;;;13.18;6.03;;;;;;;-2.06;100.00;93465.06;4986910;28;20398;-94
2022/01/10 06:22:36;;;;;;;12.35;5.55;;;;;;;-1.96;100.00;93474.84;5020437;28;20117;-93
2022/01/10 06:25:03;;;;;;;9.80;5.25;;;;;;;-1.92;100.00;93481.91;4986958;28;20037;-95
2022/01/10 06:27:29;;;;;;;12.35;5.97;;;;;;;-1.65;100.00;93486.81;4986828;28;20037;-95
2022/01/10 06:29:57;;;;;;;11.30;5.55;;;;;;;-1.61;100.00;93475.09;5003362;28;20030;-95
2022/01/10 06:32:23;;;;;;;12.57;5.60;;;;;;;-1.68;100.00;93481.31;4986588;28;20030;-95
2022/01/10 06:34:48;;;;;;;14.32;5.65;;;;;;;-1.63;100.00;93484.81;5019131;28;20037;-94
2022/01/10 06:37:14;;;;;;;9.48;5.03;;;;;;;-1.53;100.00;93492.03;5002710;28;20132;-94
2022/01/10 06:39:39;;;;;;;12.68;5.85;;;;;;;-1.36;100.00;93497.38;5002314;28;20382;-94
2022/01/10 06:42:05;;;;;;;8.77;4.85;;;;;;;-1.23;100.00;93503.38;4986049;28;20428;-94
2022/01/10 06:44:31;;;;;;;11.73;6.45;;;;;;;-1.24;100.00;93499.25;4986110;28;20041;-92
2022/01/10 06:46:57;;;;;;;10.00;4.95;;;;;;;-1.16;100.00;93506.66;5002460;28;20064;-94
2022/01/10 06:49:23;;;;;;;10.13;5.35;;;;;;;-1.18;100.00;93513.81;4986387;28;20515;-93
2022/01/10 06:51:49;;;;;;;9.93;4.97;;;;;;;-1.07;100.00;93520.03;4985889;28;20045;-94
2022/01/10 06:54:15;;;;;;;9.95;4.60;;;;;;;-1.09;100.00;93520.22;4985949;28;20049;-94
2022/01/10 06:56:40;;;;;;;10.65;5.10;;;;;;;-0.94;100.00;93519.84;5002099;28;20030;-93
2022/01/10 06:59:05;;;;;;;9.93;5.25;;;;;;;-1.06;100.00;93527.50;5002017;28;20037;-94
2022/01/10 07:01:31;;;;;;;10.25;5.35;;;;;;;-1.08;100.00;93528.72;4985782;28;20056;-92
2022/01/10 07:03:57;;;;;;;12.95;5.53;;;;;;;-1.01;100.00;93540.50;4985799;28;20033;-93
2022/01/10 07:06:23;;;;;;;10.63;4.88;;;;;;;-1.07;100.00;93536.22;5002022;28;20030;-93
2022/01/10 07:08:49;;;;;;;9.27;4.70;;;;;;;-1.04;100.00;93538.38;4985641;28;20025;-94
2022/01/10 07:11:14;;;;;;;8.77;4.72;;;;;;;-1.00;100.00;93554.16;4985546;28;20029;-94
2022/01/10 07:13:40;;;;;;;10.35;4.53;;;;;;;-0.92;100.00;93546.16;4985921;28;20033;-94
2022/01/10 07:16:05;;;;;;;8.43;4.60;;;;;;;-0.77;100.00;93560.44;5002053;28;20080;-95
2022/01/10 07:18:31;;;;;;;7.13;4.05;;;;;;;-0.79;100.00;93559.84;4985841;28;20033;-94
2022/01/10 07:20:56;;;;;;;10.10;5.53;;;;;;;-0.87;100.00;93556.56;5001886;28;20037;-93
2022/01/10 07:23:23;;;;;;;7.72;4.20;;;;;;;-0.74;100.00;93570.28;5018196;28;20030;-96
2022/01/10 07:25:49;;;;;;;12.82;4.97;;;;;;;-0.69;100.00;93573.00;5001672;28;20347;-95
2022/01/10 07:28:18;;;;;;;11.85;5.10;;;;;;;-0.75;100.00;93574.63;4987353;28;20453;-95
2022/01/10 07:30:44;;;;;;;7.22;4.45;;;;;;;-0.73;100.00;93572.63;5004329;28;20438;-95
2022/01/10 07:33:10;;;;;;;11.20;4.78;;;;;;;-0.70;100.00;93578.38;5003137;28;20358;-94
2022/01/10 07:35:36;;;;;;;15.13;7.13;;;;;;;-0.66;100.00;93587.22;5002234;28;20029;-92
2022/01/10 07:38:01;;;;;;;9.25;5.10;;;;;;;-0.68;100.00;93586.66;5003241;28;20342;-95
2022/01/10 07:44:02;;;;;;;11.65;5.00;;;;;;;-0.67;100.00;93601.84;5018468;28;20041;-93
2022/01/10 07:46:28;;;;;;;8.88;4.47;;;;;;;-0.37;100.00;93615.78;4985067;28;20029;-93
2022/01/10 07:48:54;;;;;;;8.23;4.22;;;;;;;-0.31;100.00;93613.13;4985363;28;20419;-93
2022/01/10 07:51:21;;;;;;;7.07;4.50;;;;;;;-0.17;100.00;93623.25;4985007;28;20029;-93
2022/01/10 07:53:47;;;;;;;7.93;4.28;;;;;;;-0.23;100.00;93612.03;4984927;28;20034;-93
2022/01/10 07:56:12;;;;;;;9.20;4.50;;;;;;;-0.16;100.00;93623.00;5001064;28;20484;-92
2022/01/10 07:58:38;;;;;;;7.65;4.05;;;;;;;-0.03;100.00;93619.47;4984949;28;20446;-91
2022/01/10 08:01:04;;;;;;;8.00;4.22;;;;;;;0.08;100.00;93625.66;4984641;28;20037;-95
2022/01/10 08:03:29;;;;;;;12.45;4.82;;;;;;;0.23;100.00;93627.06;4984725;28;20030;-92
2022/01/10 08:05:55;;;;;;;9.32;4.85;;;;;;;0.26;100.00;93629.97;4984797;28;20029;-93
2022/01/10 08:08:20;;;;;;;9.13;4.45;;;;;;;0.31;100.00;93620.78;4984623;28;20462;-93
2022/01/10 08:10:46;;;;;;;12.00;4.72;;;;;;;0.38;100.00;93637.72;4984445;28;20026;-94
2022/01/10 08:13:11;;;;;;;9.95;4.80;;;;;;;0.45;100.00;93636.84;4984713;28;20128;-93
2022/01/10 08:15:37;;;;;;;11.13;4.57;;;;;;;0.49;100.00;93641.31;5000818;28;20030;-93
2022/01/10 08:18:05;;;;;;;13.18;5.93;;;;;;;0.63;100.00;93638.53;4984523;28;20030;-93
2022/01/10 08:20:30;;;;;;;14.57;5.78;;;;;;;0.65;100.00;93652.78;4984208;28;20025;-93
2022/01/10 08:22:56;;;;;;;13.10;5.90;;;;;;;0.69;100.00;93648.75;4983655;28;20044;-93
2022/01/10 08:25:21;;;;;;;14.55;6.22;;;;;;;0.82;100.00;93649.53;4984390;28;20415;-93
2022/01/10 08:27:47;;;;;;;14.23;5.32;;;;;;;0.96;100.00;93650.13;4984145;28;20037;-92
2022/01/10 08:30:13;;;;;;;12.75;5.70;;;;;;;0.80;100.00;93649.78;4984274;28;20061;-92
2022/01/10 08:32:38;;;;;;;17.33;6.55;;;;;;;0.71;100.00;93651.13;4984008;28;20048;-93
2022/01/10 08:35:05;;;;;;;13.23;5.60;;;;;;;0.70;100.00;93647.75;4984196;28;20030;-92
2022/01/10 08:37:30;;;;;;;10.70;5.55;;;;;;;0.85;100.00;93651.69;4984125;28;20041;-92
2022/01/10 08:39:56;;;;;;;10.75;4.88;;;;;;;0.96;100.00;93653.47;4984069;28;20046;-93
2022/01/10 08:42:23;;;;;;;13.45;5.78;;;;;;;0.93;100.00;93650.56;4983953;28;20049;-94
2022/01/10 08:44:48;;;;;;;9.43;4.55;;;;;;;1.19;100.00;93654.50;4983807;28;20061;-93
2022/01/10 08:47:15;;;;;;;8.30;4.35;;;;;;;1.39;100.00;93659.28;4983861;28;20037;-93
2022/01/10 08:49:41;;;;;;;9.10;4.30;;;;;;;1.45;100.00;93649.06;5000038;28;20462;-93
2022/01/10 08:52:06;;;;;;;9.85;4.05;;;;;;;1.81;100.00;93652.34;4983915;28;20033;-93
2022/01/10 08:54:32;;;;;;;9.50;3.80;;;;;;;2.09;100.00;93656.72;4983949;28;20037;-93
2022/01/10 08:56:58;;;;;;;7.57;3.58;;;;;;;1.89;100.00;93664.13;4983927;28;20033;-92
2022/01/10 08:59:24;;;;;;;7.97;3.20;;;;;;;1.95;100.00;93658.03;4983901;28;20029;-93
2022/01/10 09:01:49;;;;;;;6.82;3.63;;;;;;;2.02;100.00;93655.31;4983820;28;20044;-93
2022/01/10 09:04:16;;;;;;;6.95;3.50;;;;;;;1.87;100.00;93659.19;4983990;28;20026;-93
2022/01/10 09:06:46;;;;;;;6.03;3.17;;;;;;;1.68;100.00;93669.69;4983795;28;20030;-93
2022/01/10 09:09:12;;;;;;;6.35;3.38;;;;;;;1.55;100.00;93664.75;4983917;28;20395;-91
2022/01/10 09:11:39;;;;;;;6.82;3.53;;;;;;;2.03;100.00;93680.94;4983700;28;20064;-95
2022/01/10 09:14:05;;;;;;;5.40;3.40;;;;;;;2.33;100.00;93679.09;4999941;28;20435;-93
2022/01/10 09:16:31;;;;;;;5.72;3.60;;;;;;;2.22;100.00;93683.31;4983688;28;20116;-92
2022/01/10 09:22:18;;;;;;;5.53;3.40;;;;;;;1.61;100.00;93705.16;5017034;28;20045;-94
2022/01/10 09:24:46;;;;;;;7.45;3.90;;;;;;;2.37;100.00;93706.09;4999820;28;20034;-92
2022/01/10 09:27:15;;;;;;;7.53;3.83;;;;;;;2.36;100.00;93709.66;4984005;28;20060;-93
2022/01/10 09:29:42;;;;;;;9.98;3.40;;;;;;;2.34;100.00;93725.41;4983804;28;20036;-93
2022/01/10 09:32:08;;;;;;;7.05;3.35;;;;;;;1.76;100.00;93715.03;4983590;28;20026;-93
2022/01/10 09:34:34;;;;;;;5.97;3.65;;;;;;;1.58;100.00;93730.63;4983576;28;20040;-95
2022/01/10 09:37:00;;;;;;;6.53;3.65;;;;;;;1.62;100.00;93729.19;4983653;28;20125;-93
2022/01/10 09:42:47;;;;;;;8.98;3.55;;;;;;;1.68;100.00;93731.66;5001086;28;20045;-93
2022/01/10 09:45:13;;;;;;;6.38;3.10;;;;;;;2.16;100.00;93723.03;4967818;28;20431;-91
2022/01/10 09:47:38;;;;;;;8.07;3.20;;;;;;;2.39;100.00;93728.09;4983763;28;20030;-93
2022/01/10 09:50:06;;;;;;;5.97;3.22;;;;;;;2.33;100.00;93730.81;4983853;28;20033;-93
2022/01/10 09:52:33;;;;;;;6.50;3.38;;;;;;;2.29;100.00;93725.31;4983778;28;20498;-92
2022/01/10 09:54:58;;;;;;;7.40;3.40;;;;;;;2.60;100.00;93725.88;4983610;28;20030;-93
2022/01/10 09:57:24;;;;;;;8.57;3.33;;;;;;;2.43;100.00;93730.19;4983453;28;20131;-94
2022/01/10 09:59:51;;;;;;;5.88;3.45;;;;;;;2.42;100.00;93729.44;4983451;28;20477;-94
2022/01/10 10:02:17;;;;;;;7.80;3.72;;;;;;;2.48;100.00;93728.50;4983637;28;20436;-92
2022/01/10 10:04:43;;;;;;;6.07;3.30;;;;;;;2.70;100.00;93730.44;4983458;28;20030;-93
2022/01/10 10:07:10;;;;;;;6.88;3.53;;;;;;;2.51;100.00;93730.63;4983296;28;20427;-93
2022/01/10 10:09:35;;;;;;;10.10;3.47;;;;;;;2.74;100.00;93728.94;4983483;28;20037;-93
2022/01/10 10:12:02;;;;;;;7.07;3.70;;;;;;;2.77;100.00;93731.06;4984492;28;20026;-94
2022/01/10 10:14:27;;;;;;;5.60;3.20;;;;;;;2.43;100.00;93727.63;5002726;28;20120;-92
2022/01/10 10:16:56;;;;;;;6.00;3.60;;;;;;;2.61;100.00;93745.53;4985837;28;20415;-93
2022/01/10 10:22:45;;;;;;;5.82;3.22;;;;;;;2.94;100.00;93741.41;5001380;28;20459;-92
2022/01/10 10:25:12;;;;;;;7.32;3.55;;;;;;;2.96;100.00;93738.63;4983515;28;20037;-95
2022/01/10 10:27:42;;;;;;;5.60;3.58;;;;;;;3.40;100.00;93750.91;4967612;28;20041;-95
2022/01/10 10:30:11;;;;;;;5.50;3.33;;;;;;;3.22;100.00;93741.56;4983001;28;20505;-94
2022/01/10 10:32:37;;;;;;;6.53;3.60;;;;;;;3.62;100.00;93742.41;4966682;28;20035;-95
2022/01/10 10:35:07;;;;;;;6.10;2.90;;;;;;;3.81;100.00;93746.28;4983064;28;20159;-94
2022/01/10 10:37:40;;;;;;;6.28;2.97;;;;;;;3.23;100.00;93758.69;4966868;28;20030;-96
2022/01/10 10:40:09;;;;;;;5.60;3.13;;;;;;;3.32;100.00;93756.50;4967206;28;20128;-95
2022/01/10 10:42:39;;;;;;;5.13;2.65;;;;;;;3.76;100.00;93755.78;4966832;28;20050;-94
2022/01/10 10:45:09;;;;;;;6.45;3.10;;;;;;;3.78;100.00;93764.91;4966927;28;20030;-95
2022/01/10 10:47:36;;;;;;;5.10;2.78;;;;;;;3.34;100.00;93759.63;4966702;28;20030;-95
2022/01/10 10:50:06;;;;;;;6.10;3.15;;;;;;;3.34;100.00;93762.22;4966900;28;20037;-95
2022/01/10 10:52:34;;;;;;;4.43;2.67;;;;;;;3.32;100.00;93761.69;4966791;28;20027;-94
2022/01/10 10:55:11;;;;;;;4.75;2.63;;;;;;;3.40;100.00;93766.44;4966661;28;20424;-95
2022/01/10 10:57:37;;;;;;;8.52;3.00;;;;;;;3.14;100.00;93768.63;4967205;28;20034;-95
2022/01/10 11:00:08;;;;;;;4.53;2.50;;;;;;;3.35;100.00;93766.38;4983538;28;20344;-95
2022/01/10 11:02:37;;;;;;;4.65;2.80;;;;;;;3.25;100.00;93770.38;4966615;28;20030;-95
2022/01/10 11:05:07;;;;;;;5.50;3.38;;;;;;;3.18;100.00;93762.00;4967371;28;20347;-95
2022/01/10 11:07:35;;;;;;;14.60;6.63;;;;;;;3.81;100.00;93761.84;4967190;28;20030;-95
2022/01/10 11:10:05;;;;;;;138.18;58.92;;;;;;;3.82;100.00;93760.03;4966327;28;20034;-93
2022/01/10 11:12:33;;;;;;;8.63;4.43;;;;;;;4.21;100.00;93765.16;4966256;28;20033;-94
2022/01/10 11:14:59;;;;;;;12.93;6.55;;;;;;;4.19;100.00;93772.41;4966691;28;20030;-95
2022/01/10 11:17:26;;;;;;;3.42;2.00;;;;;;;4.15;100.00;93773.91;4966223;28;20041;-94
2022/01/10 11:20:20;;;;;;;3.75;1.95;;;;;;;3.60;100.00;93778.13;4966392;28;20030;-94
2022/01/10 11:22:48;;;;;;;4.10;2.33;;;;;;;3.53;100.00;93775.72;4966461;28;20022;-95
2022/01/10 11:25:28;;;;;;;3.55;2.10;;;;;;;3.69;100.00;93781.88;4982288;28;20030;-93
2022/01/10 11:28:00;;;;;;;3.47;1.83;;;;;;;3.61;100.00;93780.47;4966357;28;20034;-94
2022/01/10 11:33:48;;;;;;;3.65;1.80;;;;;;;3.51;99.24;93780.31;4999009;28;20053;-94
2022/01/10 11:36:14;;;;;;;5.45;1.77;;;;;;;3.29;82.62;93783.63;4966088;28;20416;-95
2022/01/10 11:38:44;;;;;;;4.82;1.98;;;;;;;3.17;85.44;93788.91;4966144;28;20030;-95
2022/01/10 11:41:15;;;;;;;2.15;1.20;;;;;;;3.18;83.94;93787.88;4965785;28;20034;-95
2022/01/10 11:43:58;;;;;;;5.35;1.40;;;;;;;3.25;86.04;93795.50;4966129;28;20034;-94
2022/01/10 11:46:26;;;;;;;2.33;1.15;;;;;;;3.22;88.80;93788.97;4966068;28;20030;-94
2022/01/10 11:48:58;;;;;;;2.03;1.05;;;;;;;3.36;80.38;93792.00;4981848;28;20033;-94
2022/01/10 11:51:26;;;;;;;1.90;0.98;;;;;;;3.30;75.60;93792.97;4981900;28;20022;-95
2022/01/10 11:54:08;;;;;;;1.90;1.00;;;;;;;3.54;79.05;93795.41;4965619;28;20030;-94
2022/01/10 11:56:36;;;;;;;2.47;1.15;;;;;;;3.22;79.46;93795.94;4965590;28;20432;-95
2022/01/10 11:59:26;;;;;;;2.25;0.95;;;;;;;3.46;77.31;93798.38;4964921;28;20041;-94
2022/01/10 12:02:03;;;;;;;2.95;1.30;;;;;;;3.28;73.12;93799.41;4965424;28;20031;-95
2022/01/10 12:04:32;;;;;;;2.47;1.20;;;;;;;3.67;82.67;93796.88;4965610;28;20132;-94
2022/01/10 12:06:58;;;;;;;29.38;11.10;;;;;;;3.37;80.56;93803.97;4965590;28;20034;-94
2022/01/10 12:09:24;;;;;;;3.17;1.20;;;;;;;3.84;76.33;93811.63;4965303;28;20088;-95
2022/01/10 12:11:51;;;;;;;2.40;1.10;;;;;;;3.76;75.14;93808.41;4965173;28;20116;-94
2022/01/10 12:14:17;;;;;;;1.52;1.30;;;;;;;3.49;80.16;93806.47;4965107;28;20136;-94
2022/01/10 12:16:43;;;;;;;9.30;4.13;;;;;;;4.11;79.51;93806.53;4965394;28;20053;-93
2022/01/10 12:19:09;;;;;;;1.95;1.10;;;;;;;4.01;70.58;93803.81;4965446;28;20034;-94
2022/01/10 12:21:35;;;;;;;2.35;1.02;;;;;;;4.05;74.97;93802.31;4965111;28;20060;-95
2022/01/10 12:24:01;;;;;;;2.70;1.10;;;;;;;3.84;73.81;93809.03;4965061;28;20034;-94
2022/01/10 12:26:27;;;;;;;1.83;1.10;;;;;;;3.84;79.28;93796.06;4964911;28;20038;-94
2022/01/10 12:28:56;;;;;;;2.80;1.35;;;;;;;3.98;83.51;93799.88;4965362;28;20412;-94
2022/01/10 12:31:24;;;;;;;2.80;1.15;;;;;;;4.17;85.34;93800.38;4965074;28;20088;-96
2022/01/10 12:33:50;;;;;;;2.80;1.40;;;;;;;3.85;72.47;93805.41;4965034;28;20038;-94
2022/01/10 12:36:17;;;;;;;4.20;1.52;;;;;;;3.68;75.03;93801.03;4981231;28;20120;-95
2022/01/10 12:38:43;;;;;;;2.65;1.45;;;;;;;3.58;95.42;93806.06;4964782;28;20034;-94
2022/01/10 12:41:09;;;;;;;35.13;13.65;;;;;;;3.84;94.57;93809.81;4964724;28;20036;-95
2022/01/10 12:43:35;;;;;;;8.80;4.20;;;;;;;4.28;89.49;93805.69;4964745;28;20037;-94
2022/01/10 12:46:01;;;;;;;4.30;1.88;;;;;;;3.63;84.54;93806.16;4964819;28;20034;-94
2022/01/10 12:48:26;;;;;;;3.25;1.55;;;;;;;3.73;79.42;93819.25;4964759;28;20133;-94
2022/01/10 12:50:54;;;;;;;10.45;4.18;;;;;;;3.50;95.38;93813.22;4981000;28;20026;-96
2022/01/10 12:53:20;;;;;;;5.10;2.00;;;;;;;3.88;85.65;93821.25;4965308;28;20057;-94
2022/01/10 12:55:45;;;;;;;4.53;1.77;;;;;;;4.17;73.61;93826.31;4980734;28;20034;-95
2022/01/10 12:58:11;;;;;;;3.00;1.38;;;;;;;4.13;73.84;93821.84;4980629;28;20041;-94
2022/01/10 13:00:37;;;;;;;5.78;1.77;;;;;;;4.23;75.06;93820.19;4964732;28;20038;-93
2022/01/10 13:03:04;;;;;;;2.97;1.80;;;;;;;3.90;75.59;93821.81;4965034;28;20088;-93
2022/01/10 13:05:31;;;;;;;2.75;1.48;;;;;;;4.30;66.69;93825.16;4980722;28;20113;-94
2022/01/10 13:07:58;;;;;;;2.10;1.40;;;;;;;4.08;67.09;93819.97;4964428;28;20073;-95
2022/01/10 13:10:31;;;;;;;3.70;1.60;;;;;;;3.89;69.22;93832.44;4967310;28;20062;-95
2022/01/10 13:12:59;;;;;;;;;;;;;;;3.90;67.32;93828.81;4985337;28;20136;-94
2022/01/10 13:18:03;;;;;;;5.22;1.50;;;;;;;3.76;77.59;93836.91;5019954;28;20041;-94
2022/01/10 13:20:32;;;;;;;3.88;1.80;;;;;;;3.69;75.05;93841.47;5004157;28;20183;-94
2022/01/10 13:23:04;;;;;;;3.88;1.90;;;;;;;3.96;77.10;93838.22;5004244;28;20026;-95
2022/01/10 13:25:39;;;;;;;2.88;1.40;;;;;;;4.28;72.94;93836.81;5004226;28;20124;-94
2022/01/10 13:28:07;;;;;;;3.38;1.67;;;;;;;4.09;90.01;93842.31;4987911;28;20447;-93
2022/01/10 13:30:34;;;;;;;5.00;2.20;;;;;;;3.98;75.55;93851.72;4987619;28;20029;-94
2022/01/10 13:33:02;;;;;;;3.00;1.52;;;;;;;4.02;76.00;93847.66;5003618;28;20343;-95
2022/01/10 13:35:32;;;;;;;2.45;1.25;;;;;;;4.31;71.09;93837.13;5004030;28;20057;-94
2022/01/10 13:37:59;;;;;;;2.78;1.38;;;;;;;4.43;72.81;93841.41;4987435;28;20029;-94